sensor_id;sensor_type;location;lat;lon;timestamp;P1;durP1;ratioP1;P2;durP2;ratioP2
11731;SDS011;5922;53.734;10.258;2023-02-17T00:00:31;20.63;;;18.07;;
11731;SDS011;5922;53.734;10.258;2023-02-17T00:03:00;21.90;;;19.50;;
11731;SDS011;5922;53.734;10.258;2023-02-17T00:05:28;21.13;;;18.90;;
11731;SDS011;5922;53.734;10.258;2023-02-17T00:07:55;22.10;;;19.80;;
11731;SDS011;5922;53.734;10.258;2023-02-17T00:10:22;21.60;;;19.30;;
11731;SDS011;5922;53.734;10.258;2023-02-17T00:12:49;21.53;;;19.23;;
11731;SDS011;5922;53.734;10.258;2023-02-17T00:15:17;20.70;;;18.60;;
11731;SDS011;5922;53.734;10.258;2023-02-17T00:17:45;21.83;;;19.53;;
11731;SDS011;5922;53.734;10.258;2023-02-17T00:20:13;21.47;;;19.27;;
11731;SDS011;5922;53.734;10.258;2023-02-17T00:22:40;20.67;;;18.60;;
11731;SDS011;5922;53.734;10.258;2023-02-17T00:25:07;20.97;;;18.87;;
11731;SDS011;5922;53.734;10.258;2023-02-17T00:27:35;21.27;;;19.17;;
11731;SDS011;5922;53.734;10.258;2023-02-17T00:30:02;21.17;;;18.97;;
11731;SDS011;5922;53.734;10.258;2023-02-17T00:32:29;21.80;;;19.60;;
11731;SDS011;5922;53.734;10.258;2023-02-17T00:34:58;20.57;;;18.37;;
11731;SDS011;5922;53.734;10.258;2023-02-17T00:37:28;22.40;;;20.10;;
11731;SDS011;5922;53.734;10.258;2023-02-17T00:39:55;21.13;;;18.97;;
11731;SDS011;5922;53.734;10.258;2023-02-17T00:42:25;21.63;;;19.33;;
11731;SDS011;5922;53.734;10.258;2023-02-17T00:44:55;21.60;;;19.30;;
11731;SDS011;5922;53.734;10.258;2023-02-17T00:47:24;22.63;;;20.33;;
11731;SDS011;5922;53.734;10.258;2023-02-17T00:49:52;23.77;;;20.20;;
11731;SDS011;5922;53.734;10.258;2023-02-17T00:52:20;22.80;;;20.10;;
11731;SDS011;5922;53.734;10.258;2023-02-17T00:54:48;22.40;;;20.00;;
11731;SDS011;5922;53.734;10.258;2023-02-17T00:57:18;22.17;;;19.87;;
11731;SDS011;5922;53.734;10.258;2023-02-17T00:59:48;21.93;;;19.63;;
11731;SDS011;5922;53.734;10.258;2023-02-17T01:02:29;22.23;;;19.93;;
11731;SDS011;5922;53.734;10.258;2023-02-17T01:04:57;22.03;;;19.77;;
11731;SDS011;5922;53.734;10.258;2023-02-17T01:07:27;21.57;;;19.30;;
11731;SDS011;5922;53.734;10.258;2023-02-17T01:09:55;22.27;;;20.07;;
11731;SDS011;5922;53.734;10.258;2023-02-17T01:12:24;21.13;;;18.90;;
11731;SDS011;5922;53.734;10.258;2023-02-17T01:14:57;22.23;;;19.80;;
11731;SDS011;5922;53.734;10.258;2023-02-17T01:17:31;20.60;;;18.03;;
11731;SDS011;5922;53.734;10.258;2023-02-17T01:19:58;21.13;;;18.93;;
11731;SDS011;5922;53.734;10.258;2023-02-17T01:22:30;20.37;;;18.27;;
11731;SDS011;5922;53.734;10.258;2023-02-17T01:24:59;18.87;;;16.90;;
11731;SDS011;5922;53.734;10.258;2023-02-17T01:27:28;19.97;;;17.87;;
11731;SDS011;5922;53.734;10.258;2023-02-17T01:29:58;20.40;;;18.20;;
11731;SDS011;5922;53.734;10.258;2023-02-17T01:32:26;18.93;;;17.03;;
11731;SDS011;5922;53.734;10.258;2023-02-17T01:34:53;19.00;;;16.90;;
11731;SDS011;5922;53.734;10.258;2023-02-17T01:37:21;19.00;;;17.03;;
11731;SDS011;5922;53.734;10.258;2023-02-17T01:39:50;19.17;;;17.17;;
11731;SDS011;5922;53.734;10.258;2023-02-17T01:42:19;17.37;;;15.67;;
11731;SDS011;5922;53.734;10.258;2023-02-17T01:47:35;17.67;;;15.87;;
11731;SDS011;5922;53.734;10.258;2023-02-17T01:50:03;17.57;;;15.77;;
11731;SDS011;5922;53.734;10.258;2023-02-17T01:52:31;17.20;;;15.50;;
11731;SDS011;5922;53.734;10.258;2023-02-17T01:55:04;17.03;;;15.23;;
11731;SDS011;5922;53.734;10.258;2023-02-17T01:57:34;16.63;;;15.00;;
11731;SDS011;5922;53.734;10.258;2023-02-17T02:00:03;16.87;;;15.17;;
11731;SDS011;5922;53.734;10.258;2023-02-17T02:02:30;16.43;;;14.73;;
11731;SDS011;5922;53.734;10.258;2023-02-17T02:04:59;16.20;;;14.60;;
11731;SDS011;5922;53.734;10.258;2023-02-17T02:07:27;16.73;;;15.03;;
11731;SDS011;5922;53.734;10.258;2023-02-17T02:10:02;16.10;;;14.50;;
11731;SDS011;5922;53.734;10.258;2023-02-17T02:12:36;15.43;;;13.93;;
11731;SDS011;5922;53.734;10.258;2023-02-17T02:15:04;17.20;;;15.50;;
11731;SDS011;5922;53.734;10.258;2023-02-17T02:17:34;15.80;;;14.13;;
11731;SDS011;5922;53.734;10.258;2023-02-17T02:20:13;15.63;;;14.03;;
11731;SDS011;5922;53.734;10.258;2023-02-17T02:22:59;15.50;;;14.00;;
11731;SDS011;5922;53.734;10.258;2023-02-17T02:25:50;14.13;;;12.63;;
11731;SDS011;5922;53.734;10.258;2023-02-17T02:28:26;14.43;;;12.93;;
11731;SDS011;5922;53.734;10.258;2023-02-17T02:31:10;14.33;;;12.93;;
11731;SDS011;5922;53.734;10.258;2023-02-17T02:33:57;14.23;;;12.83;;
11731;SDS011;5922;53.734;10.258;2023-02-17T02:36:30;14.37;;;12.87;;
11731;SDS011;5922;53.734;10.258;2023-02-17T02:39:06;13.90;;;12.53;;
11731;SDS011;5922;53.734;10.258;2023-02-17T02:41:39;14.20;;;12.80;;
11731;SDS011;5922;53.734;10.258;2023-02-17T02:44:08;12.97;;;11.70;;
11731;SDS011;5922;53.734;10.258;2023-02-17T02:46:41;13.73;;;12.33;;
11731;SDS011;5922;53.734;10.258;2023-02-17T02:49:13;13.93;;;12.53;;
11731;SDS011;5922;53.734;10.258;2023-02-17T02:51:42;13.23;;;11.93;;
11731;SDS011;5922;53.734;10.258;2023-02-17T02:54:16;13.97;;;12.63;;
11731;SDS011;5922;53.734;10.258;2023-02-17T02:56:51;13.43;;;12.13;;
11731;SDS011;5922;53.734;10.258;2023-02-17T02:59:29;13.10;;;11.80;;
11731;SDS011;5922;53.734;10.258;2023-02-17T03:02:28;12.33;;;11.13;;
11731;SDS011;5922;53.734;10.258;2023-02-17T03:04:59;12.30;;;11.10;;
11731;SDS011;5922;53.734;10.258;2023-02-17T03:07:33;12.07;;;10.77;;
11731;SDS011;5922;53.734;10.258;2023-02-17T03:10:12;12.37;;;11.17;;
11731;SDS011;5922;53.734;10.258;2023-02-17T03:12:42;11.80;;;10.70;;
11731;SDS011;5922;53.734;10.258;2023-02-17T03:15:13;12.57;;;11.27;;
11731;SDS011;5922;53.734;10.258;2023-02-17T03:17:44;12.00;;;10.87;;
11731;SDS011;5922;53.734;10.258;2023-02-17T03:20:13;12.70;;;11.40;;
11731;SDS011;5922;53.734;10.258;2023-02-17T03:22:44;12.20;;;11.00;;
11731;SDS011;5922;53.734;10.258;2023-02-17T03:25:19;11.37;;;10.27;;
11731;SDS011;5922;53.734;10.258;2023-02-17T03:27:50;12.27;;;10.97;;
11731;SDS011;5922;53.734;10.258;2023-02-17T03:30:20;11.47;;;10.37;;
11731;SDS011;5922;53.734;10.258;2023-02-17T03:33:03;11.20;;;10.10;;
11731;SDS011;5922;53.734;10.258;2023-02-17T03:35:34;11.20;;;10.10;;
11731;SDS011;5922;53.734;10.258;2023-02-17T03:38:07;10.87;;;9.77;;
11731;SDS011;5922;53.734;10.258;2023-02-17T03:40:36;10.70;;;9.70;;
11731;SDS011;5922;53.734;10.258;2023-02-17T03:43:06;11.50;;;10.27;;
11731;SDS011;5922;53.734;10.258;2023-02-17T03:45:34;10.97;;;9.87;;
11731;SDS011;5922;53.734;10.258;2023-02-17T03:48:02;10.80;;;9.70;;
11731;SDS011;5922;53.734;10.258;2023-02-17T03:50:29;10.40;;;9.40;;
11731;SDS011;5922;53.734;10.258;2023-02-17T03:53:07;10.17;;;9.23;;
11731;SDS011;5922;53.734;10.258;2023-02-17T03:55:37;10.43;;;9.43;;
11731;SDS011;5922;53.734;10.258;2023-02-17T03:58:07;10.20;;;9.20;;
11731;SDS011;5922;53.734;10.258;2023-02-17T04:00:37;10.93;;;9.83;;
11731;SDS011;5922;53.734;10.258;2023-02-17T04:03:08;10.67;;;9.67;;
11731;SDS011;5922;53.734;10.258;2023-02-17T04:05:44;10.27;;;9.27;;
11731;SDS011;5922;53.734;10.258;2023-02-17T04:08:15;11.53;;;10.33;;
11731;SDS011;5922;53.734;10.258;2023-02-17T04:10:56;10.23;;;9.23;;
11731;SDS011;5922;53.734;10.258;2023-02-17T04:13:26;11.30;;;10.20;;
11731;SDS011;5922;53.734;10.258;2023-02-17T04:16:02;11.17;;;10.03;;
11731;SDS011;5922;53.734;10.258;2023-02-17T04:18:46;10.57;;;9.47;;
11731;SDS011;5922;53.734;10.258;2023-02-17T04:21:13;11.47;;;10.37;;
11731;SDS011;5922;53.734;10.258;2023-02-17T04:23:53;12.07;;;10.83;;
11731;SDS011;5922;53.734;10.258;2023-02-17T04:26:24;11.53;;;10.33;;
11731;SDS011;5922;53.734;10.258;2023-02-17T04:28:55;11.63;;;10.07;;
11731;SDS011;5922;53.734;10.258;2023-02-17T04:31:23;11.10;;;10.00;;
11731;SDS011;5922;53.734;10.258;2023-02-17T04:34:03;11.83;;;10.63;;
11731;SDS011;5922;53.734;10.258;2023-02-17T04:39:26;10.70;;;9.70;;
11731;SDS011;5922;53.734;10.258;2023-02-17T04:42:15;10.30;;;9.30;;
11731;SDS011;5922;53.734;10.258;2023-02-17T04:44:42;12.13;;;9.70;;
11731;SDS011;5922;53.734;10.258;2023-02-17T04:47:11;11.03;;;9.93;;
11731;SDS011;5922;53.734;10.258;2023-02-17T04:49:41;10.30;;;9.33;;
11731;SDS011;5922;53.734;10.258;2023-02-17T04:52:17;10.43;;;9.43;;
11731;SDS011;5922;53.734;10.258;2023-02-17T04:54:55;10.10;;;9.10;;
11731;SDS011;5922;53.734;10.258;2023-02-17T04:57:22;10.33;;;9.43;;
11731;SDS011;5922;53.734;10.258;2023-02-17T04:59:49;10.80;;;9.70;;
11731;SDS011;5922;53.734;10.258;2023-02-17T05:02:19;10.27;;;9.27;;
11731;SDS011;5922;53.734;10.258;2023-02-17T05:04:47;11.00;;;9.90;;
11731;SDS011;5922;53.734;10.258;2023-02-17T05:07:23;11.70;;;10.50;;
11731;SDS011;5922;53.734;10.258;2023-02-17T05:09:55;11.60;;;10.40;;
11731;SDS011;5922;53.734;10.258;2023-02-17T05:12:22;11.23;;;10.20;;
11731;SDS011;5922;53.734;10.258;2023-02-17T05:14:52;10.47;;;9.47;;
11731;SDS011;5922;53.734;10.258;2023-02-17T05:17:22;10.97;;;9.87;;
11731;SDS011;5922;53.734;10.258;2023-02-17T05:19:55;11.70;;;10.30;;
11731;SDS011;5922;53.734;10.258;2023-02-17T05:22:25;10.73;;;9.73;;
11731;SDS011;5922;53.734;10.258;2023-02-17T05:27:53;10.53;;;9.40;;
11731;SDS011;5922;53.734;10.258;2023-02-17T05:30:29;11.67;;;10.47;;
11731;SDS011;5922;53.734;10.258;2023-02-17T05:33:04;11.27;;;10.17;;
11731;SDS011;5922;53.734;10.258;2023-02-17T05:35:45;11.43;;;10.07;;
11731;SDS011;5922;53.734;10.258;2023-02-17T05:38:21;11.70;;;10.37;;
11731;SDS011;5922;53.734;10.258;2023-02-17T05:41:08;11.33;;;10.23;;
11731;SDS011;5922;53.734;10.258;2023-02-17T05:43:37;11.93;;;10.73;;
11731;SDS011;5922;53.734;10.258;2023-02-17T05:46:04;10.17;;;9.17;;
11731;SDS011;5922;53.734;10.258;2023-02-17T05:48:32;11.33;;;10.23;;
11731;SDS011;5922;53.734;10.258;2023-02-17T05:53:46;10.77;;;9.67;;
11731;SDS011;5922;53.734;10.258;2023-02-17T05:56:23;11.50;;;10.30;;
11731;SDS011;5922;53.734;10.258;2023-02-17T05:58:54;10.63;;;9.53;;
11731;SDS011;5922;53.734;10.258;2023-02-17T06:01:40;11.23;;;10.03;;
11731;SDS011;5922;53.734;10.258;2023-02-17T06:04:24;10.43;;;9.33;;
11731;SDS011;5922;53.734;10.258;2023-02-17T06:07:11;10.23;;;9.17;;
11731;SDS011;5922;53.734;10.258;2023-02-17T06:09:54;10.13;;;9.13;;
11731;SDS011;5922;53.734;10.258;2023-02-17T06:12:29;11.73;;;9.57;;
11731;SDS011;5922;53.734;10.258;2023-02-17T06:15:07;11.13;;;9.83;;
11731;SDS011;5922;53.734;10.258;2023-02-17T06:17:44;10.53;;;9.43;;
11731;SDS011;5922;53.734;10.258;2023-02-17T06:20:33;11.60;;;9.90;;
11731;SDS011;5922;53.734;10.258;2023-02-17T06:23:07;11.60;;;9.50;;
11731;SDS011;5922;53.734;10.258;2023-02-17T06:25:42;13.13;;;10.40;;
11731;SDS011;5922;53.734;10.258;2023-02-17T06:28:15;11.57;;;9.93;;
11731;SDS011;5922;53.734;10.258;2023-02-17T06:30:57;13.47;;;12.07;;
11731;SDS011;5922;53.734;10.258;2023-02-17T06:33:30;16.43;;;11.60;;
11731;SDS011;5922;53.734;10.258;2023-02-17T06:36:00;13.23;;;11.67;;
11731;SDS011;5922;53.734;10.258;2023-02-17T06:38:58;14.33;;;12.23;;
11731;SDS011;5922;53.734;10.258;2023-02-17T06:41:29;14.07;;;12.57;;
11731;SDS011;5922;53.734;10.258;2023-02-17T06:44:14;14.73;;;13.20;;
11731;SDS011;5922;53.734;10.258;2023-02-17T06:50:03;14.30;;;12.13;;
11731;SDS011;5922;53.734;10.258;2023-02-17T06:52:50;13.37;;;11.97;;
11731;SDS011;5922;53.734;10.258;2023-02-17T06:55:26;15.23;;;13.63;;
11731;SDS011;5922;53.734;10.258;2023-02-17T06:58:02;14.60;;;13.07;;
11731;SDS011;5922;53.734;10.258;2023-02-17T07:00:29;15.40;;;13.57;;
11731;SDS011;5922;53.734;10.258;2023-02-17T07:03:00;16.00;;;13.73;;
11731;SDS011;5922;53.734;10.258;2023-02-17T07:05:37;14.93;;;13.40;;
11731;SDS011;5922;53.734;10.258;2023-02-17T07:08:27;15.87;;;13.60;;
11731;SDS011;5922;53.734;10.258;2023-02-17T07:11:09;17.07;;;14.73;;
11731;SDS011;5922;53.734;10.258;2023-02-17T07:13:40;15.80;;;14.13;;
11731;SDS011;5922;53.734;10.258;2023-02-17T07:16:20;16.40;;;14.63;;
11731;SDS011;5922;53.734;10.258;2023-02-17T07:19:05;17.60;;;15.07;;
11731;SDS011;5922;53.734;10.258;2023-02-17T07:21:50;17.93;;;15.87;;
11731;SDS011;5922;53.734;10.258;2023-02-17T07:24:17;18.07;;;15.47;;
11731;SDS011;5922;53.734;10.258;2023-02-17T07:26:51;20.37;;;17.20;;
11731;SDS011;5922;53.734;10.258;2023-02-17T07:29:22;18.73;;;16.33;;
11731;SDS011;5922;53.734;10.258;2023-02-17T07:32:10;22.30;;;17.10;;
11731;SDS011;5922;53.734;10.258;2023-02-17T07:34:41;20.83;;;16.83;;
11731;SDS011;5922;53.734;10.258;2023-02-17T07:37:21;21.87;;;17.83;;
11731;SDS011;5922;53.734;10.258;2023-02-17T07:40:02;18.17;;;15.37;;
11731;SDS011;5922;53.734;10.258;2023-02-17T07:42:55;20.10;;;17.57;;
11731;SDS011;5922;53.734;10.258;2023-02-17T07:45:26;22.07;;;17.00;;
11731;SDS011;5922;53.734;10.258;2023-02-17T07:47:56;22.17;;;18.27;;
11731;SDS011;5922;53.734;10.258;2023-02-17T07:50:30;23.73;;;20.73;;
11731;SDS011;5922;53.734;10.258;2023-02-17T07:52:59;25.30;;;22.60;;
11731;SDS011;5922;53.734;10.258;2023-02-17T07:55:30;22.50;;;18.10;;
11731;SDS011;5922;53.734;10.258;2023-02-17T07:57:59;22.17;;;17.97;;
11731;SDS011;5922;53.734;10.258;2023-02-17T08:00:30;22.00;;;17.57;;
11731;SDS011;5922;53.734;10.258;2023-02-17T08:03:01;22.03;;;18.37;;
11731;SDS011;5922;53.734;10.258;2023-02-17T08:05:32;20.80;;;16.30;;
11731;SDS011;5922;53.734;10.258;2023-02-17T08:26:48;18.17;;;15.07;;
11731;SDS011;5922;53.734;10.258;2023-02-17T08:29:25;20.57;;;15.87;;
11731;SDS011;5922;53.734;10.258;2023-02-17T08:32:14;17.97;;;15.07;;
11731;SDS011;5922;53.734;10.258;2023-02-17T08:38:01;17.20;;;14.07;;
11731;SDS011;5922;53.734;10.258;2023-02-17T08:40:32;16.37;;;12.97;;
11731;SDS011;5922;53.734;10.258;2023-02-17T08:43:01;18.23;;;14.53;;
11731;SDS011;5922;53.734;10.258;2023-02-17T08:45:51;16.90;;;13.03;;
11731;SDS011;5922;53.734;10.258;2023-02-17T08:48:32;17.80;;;15.07;;
11731;SDS011;5922;53.734;10.258;2023-02-17T08:50:59;16.97;;;13.17;;
11731;SDS011;5922;53.734;10.258;2023-02-17T08:53:32;15.93;;;12.80;;
11731;SDS011;5922;53.734;10.258;2023-02-17T08:56:19;16.50;;;13.80;;
11731;SDS011;5922;53.734;10.258;2023-02-17T08:58:56;15.30;;;12.50;;
11731;SDS011;5922;53.734;10.258;2023-02-17T09:01:33;15.93;;;13.10;;
11731;SDS011;5922;53.734;10.258;2023-02-17T09:04:04;13.27;;;10.40;;
11731;SDS011;5922;53.734;10.258;2023-02-17T09:06:36;14.07;;;10.27;;
11731;SDS011;5922;53.734;10.258;2023-02-17T09:09:12;12.30;;;11.00;;
11731;SDS011;5922;53.734;10.258;2023-02-17T09:11:51;16.37;;;11.20;;
11731;SDS011;5922;53.734;10.258;2023-02-17T09:20:00;14.37;;;11.43;;
11731;SDS011;5922;53.734;10.258;2023-02-17T09:22:39;11.87;;;9.97;;
11731;SDS011;5922;53.734;10.258;2023-02-17T09:25:12;12.90;;;10.47;;
11731;SDS011;5922;53.734;10.258;2023-02-17T09:27:39;10.93;;;9.10;;
11731;SDS011;5922;53.734;10.258;2023-02-17T09:32:42;10.63;;;8.60;;
11731;SDS011;5922;53.734;10.258;2023-02-17T09:35:11;10.17;;;8.40;;
11731;SDS011;5922;53.734;10.258;2023-02-17T09:37:39;9.80;;;8.80;;
11731;SDS011;5922;53.734;10.258;2023-02-17T09:40:06;10.70;;;8.60;;
11731;SDS011;5922;53.734;10.258;2023-02-17T09:42:35;11.13;;;9.13;;
11731;SDS011;5922;53.734;10.258;2023-02-17T09:45:04;10.30;;;8.67;;
11731;SDS011;5922;53.734;10.258;2023-02-17T09:47:33;10.73;;;9.17;;
11731;SDS011;5922;53.734;10.258;2023-02-17T09:50:02;10.73;;;8.90;;
11731;SDS011;5922;53.734;10.258;2023-02-17T09:52:31;11.00;;;9.30;;
11731;SDS011;5922;53.734;10.258;2023-02-17T09:55:03;13.27;;;10.57;;
11731;SDS011;5922;53.734;10.258;2023-02-17T09:57:33;11.20;;;9.50;;
11731;SDS011;5922;53.734;10.258;2023-02-17T10:00:03;11.67;;;9.97;;
11731;SDS011;5922;53.734;10.258;2023-02-17T10:02:37;11.83;;;9.63;;
11731;SDS011;5922;53.734;10.258;2023-02-17T10:05:06;11.30;;;9.60;;
11731;SDS011;5922;53.734;10.258;2023-02-17T10:07:38;10.80;;;9.10;;
11731;SDS011;5922;53.734;10.258;2023-02-17T10:10:07;12.10;;;9.53;;
11731;SDS011;5922;53.734;10.258;2023-02-17T10:12:37;12.97;;;9.93;;
11731;SDS011;5922;53.734;10.258;2023-02-17T10:15:07;9.53;;;8.53;;
11731;SDS011;5922;53.734;10.258;2023-02-17T10:17:36;9.43;;;8.20;;
11731;SDS011;5922;53.734;10.258;2023-02-17T10:20:06;10.90;;;9.00;;
11731;SDS011;5922;53.734;10.258;2023-02-17T10:22:36;10.97;;;8.83;;
11731;SDS011;5922;53.734;10.258;2023-02-17T10:25:11;12.47;;;9.23;;
11731;SDS011;5922;53.734;10.258;2023-02-17T10:27:40;9.13;;;8.10;;
11731;SDS011;5922;53.734;10.258;2023-02-17T10:30:13;10.97;;;9.10;;
11731;SDS011;5922;53.734;10.258;2023-02-17T10:32:48;10.23;;;9.03;;
11731;SDS011;5922;53.734;10.258;2023-02-17T10:35:17;11.13;;;8.73;;
11731;SDS011;5922;53.734;10.258;2023-02-17T10:37:52;10.10;;;7.93;;
11731;SDS011;5922;53.734;10.258;2023-02-17T10:40:22;11.03;;;9.20;;
11731;SDS011;5922;53.734;10.258;2023-02-17T10:42:50;11.60;;;8.30;;
11731;SDS011;5922;53.734;10.258;2023-02-17T10:45:21;10.77;;;8.20;;
11731;SDS011;5922;53.734;10.258;2023-02-17T10:47:50;10.30;;;7.73;;
11731;SDS011;5922;53.734;10.258;2023-02-17T10:50:21;10.77;;;8.23;;
11731;SDS011;5922;53.734;10.258;2023-02-17T10:52:51;8.60;;;7.00;;
11731;SDS011;5922;53.734;10.258;2023-02-17T10:55:21;8.27;;;7.20;;
11731;SDS011;5922;53.734;10.258;2023-02-17T10:57:51;9.30;;;7.00;;
11731;SDS011;5922;53.734;10.258;2023-02-17T11:00:20;6.87;;;6.17;;
11731;SDS011;5922;53.734;10.258;2023-02-17T11:02:48;8.53;;;7.00;;
11731;SDS011;5922;53.734;10.258;2023-02-17T11:05:20;9.20;;;6.23;;
11731;SDS011;5922;53.734;10.258;2023-02-17T11:07:48;9.00;;;6.60;;
11731;SDS011;5922;53.734;10.258;2023-02-17T11:10:22;9.57;;;6.40;;
11731;SDS011;5922;53.734;10.258;2023-02-17T11:12:50;8.13;;;6.53;;
11731;SDS011;5922;53.734;10.258;2023-02-17T11:15:21;8.57;;;7.43;;
11731;SDS011;5922;53.734;10.258;2023-02-17T11:17:50;8.93;;;6.47;;
11731;SDS011;5922;53.734;10.258;2023-02-17T11:20:28;7.67;;;6.50;;
11731;SDS011;5922;53.734;10.258;2023-02-17T11:23:00;8.70;;;6.73;;
11731;SDS011;5922;53.734;10.258;2023-02-17T11:25:30;8.10;;;6.50;;
11731;SDS011;5922;53.734;10.258;2023-02-17T11:27:58;9.90;;;7.27;;
11731;SDS011;5922;53.734;10.258;2023-02-17T11:30:26;7.73;;;6.20;;
11731;SDS011;5922;53.734;10.258;2023-02-17T11:32:53;8.10;;;6.63;;
11731;SDS011;5922;53.734;10.258;2023-02-17T11:35:22;7.20;;;6.13;;
11731;SDS011;5922;53.734;10.258;2023-02-17T11:37:50;7.47;;;6.63;;
11731;SDS011;5922;53.734;10.258;2023-02-17T11:40:24;7.23;;;6.53;;
11731;SDS011;5922;53.734;10.258;2023-02-17T11:42:58;8.20;;;6.87;;
11731;SDS011;5922;53.734;10.258;2023-02-17T11:45:26;10.80;;;7.07;;
11731;SDS011;5922;53.734;10.258;2023-02-17T11:48:00;8.57;;;6.27;;
11731;SDS011;5922;53.734;10.258;2023-02-17T11:50:31;7.50;;;6.60;;
11731;SDS011;5922;53.734;10.258;2023-02-17T11:53:02;8.67;;;7.27;;
11731;SDS011;5922;53.734;10.258;2023-02-17T11:55:34;8.50;;;6.83;;
11731;SDS011;5922;53.734;10.258;2023-02-17T11:58:10;9.03;;;7.20;;
11731;SDS011;5922;53.734;10.258;2023-02-17T12:00:41;8.07;;;7.23;;
11731;SDS011;5922;53.734;10.258;2023-02-17T12:06:00;9.10;;;7.83;;
11731;SDS011;5922;53.734;10.258;2023-02-17T12:08:34;9.20;;;6.37;;
11731;SDS011;5922;53.734;10.258;2023-02-17T12:11:07;9.87;;;7.07;;
11731;SDS011;5922;53.734;10.258;2023-02-17T12:13:41;11.73;;;7.27;;
11731;SDS011;5922;53.734;10.258;2023-02-17T12:16:17;8.40;;;7.47;;
11731;SDS011;5922;53.734;10.258;2023-02-17T12:18:49;7.03;;;6.30;;
11731;SDS011;5922;53.734;10.258;2023-02-17T12:21:23;8.40;;;6.40;;
11731;SDS011;5922;53.734;10.258;2023-02-17T12:24:04;9.50;;;6.70;;
11731;SDS011;5922;53.734;10.258;2023-02-17T12:26:35;6.73;;;5.53;;
11731;SDS011;5922;53.734;10.258;2023-02-17T12:29:08;8.33;;;6.40;;
11731;SDS011;5922;53.734;10.258;2023-02-17T12:31:44;7.63;;;5.80;;
11731;SDS011;5922;53.734;10.258;2023-02-17T12:34:16;7.37;;;5.77;;
11731;SDS011;5922;53.734;10.258;2023-02-17T12:36:46;8.33;;;5.93;;
11731;SDS011;5922;53.734;10.258;2023-02-17T12:39:15;6.50;;;5.77;;
11731;SDS011;5922;53.734;10.258;2023-02-17T12:41:44;7.53;;;5.70;;
11731;SDS011;5922;53.734;10.258;2023-02-17T12:44:16;6.77;;;5.40;;
11731;SDS011;5922;53.734;10.258;2023-02-17T12:46:45;7.17;;;5.80;;
11731;SDS011;5922;53.734;10.258;2023-02-17T12:49:15;7.03;;;5.13;;
11731;SDS011;5922;53.734;10.258;2023-02-17T12:51:43;6.63;;;5.33;;
11731;SDS011;5922;53.734;10.258;2023-02-17T12:54:14;4.77;;;4.30;;
11731;SDS011;5922;53.734;10.258;2023-02-17T12:59:32;4.60;;;4.17;;
11731;SDS011;5922;53.734;10.258;2023-02-17T13:02:00;7.17;;;4.63;;
11731;SDS011;5922;53.734;10.258;2023-02-17T13:04:29;4.43;;;4.03;;
11731;SDS011;5922;53.734;10.258;2023-02-17T13:07:00;6.57;;;4.63;;
11731;SDS011;5922;53.734;10.258;2023-02-17T13:09:30;4.80;;;4.30;;
11731;SDS011;5922;53.734;10.258;2023-02-17T13:12:15;5.83;;;4.27;;
11731;SDS011;5922;53.734;10.258;2023-02-17T13:14:45;5.30;;;3.90;;
11731;SDS011;5922;53.734;10.258;2023-02-17T13:17:23;6.37;;;4.70;;
11731;SDS011;5922;53.734;10.258;2023-02-17T13:19:59;5.53;;;3.57;;
11731;SDS011;5922;53.734;10.258;2023-02-17T13:22:26;5.07;;;4.07;;
11731;SDS011;5922;53.734;10.258;2023-02-17T13:24:53;6.33;;;3.93;;
11731;SDS011;5922;53.734;10.258;2023-02-17T13:27:29;6.17;;;3.73;;
11731;SDS011;5922;53.734;10.258;2023-02-17T13:29:59;5.07;;;3.93;;
11731;SDS011;5922;53.734;10.258;2023-02-17T13:32:27;6.53;;;3.93;;
11731;SDS011;5922;53.734;10.258;2023-02-17T13:34:58;6.03;;;4.00;;
11731;SDS011;5922;53.734;10.258;2023-02-17T13:37:36;8.00;;;4.20;;
11731;SDS011;5922;53.734;10.258;2023-02-17T13:40:24;8.43;;;4.73;;
11731;SDS011;5922;53.734;10.258;2023-02-17T13:42:55;8.97;;;4.00;;
11731;SDS011;5922;53.734;10.258;2023-02-17T13:45:25;11.10;;;4.13;;
11731;SDS011;5922;53.734;10.258;2023-02-17T13:47:54;8.80;;;4.73;;
11731;SDS011;5922;53.734;10.258;2023-02-17T13:50:25;11.73;;;4.97;;
11731;SDS011;5922;53.734;10.258;2023-02-17T13:52:53;8.10;;;4.43;;
11731;SDS011;5922;53.734;10.258;2023-02-17T13:55:20;6.83;;;4.07;;
11731;SDS011;5922;53.734;10.258;2023-02-17T13:57:50;8.87;;;3.50;;
11731;SDS011;5922;53.734;10.258;2023-02-17T14:00:19;7.03;;;3.57;;
11731;SDS011;5922;53.734;10.258;2023-02-17T14:02:49;8.23;;;4.00;;
11731;SDS011;5922;53.734;10.258;2023-02-17T14:05:17;9.30;;;3.67;;
11731;SDS011;5922;53.734;10.258;2023-02-17T14:07:47;5.70;;;3.40;;
11731;SDS011;5922;53.734;10.258;2023-02-17T14:10:18;7.03;;;3.60;;
11731;SDS011;5922;53.734;10.258;2023-02-17T14:12:45;7.13;;;3.33;;
11731;SDS011;5922;53.734;10.258;2023-02-17T14:15:14;6.93;;;3.17;;
11731;SDS011;5922;53.734;10.258;2023-02-17T14:17:41;6.27;;;2.67;;
11731;SDS011;5922;53.734;10.258;2023-02-17T14:22:59;9.17;;;2.73;;
11731;SDS011;5922;53.734;10.258;2023-02-17T14:25:28;8.70;;;2.57;;
11731;SDS011;5922;53.734;10.258;2023-02-17T14:27:56;7.63;;;2.50;;
11731;SDS011;5922;53.734;10.258;2023-02-17T14:30:26;8.30;;;2.83;;
11731;SDS011;5922;53.734;10.258;2023-02-17T14:32:59;7.03;;;2.00;;
11731;SDS011;5922;53.734;10.258;2023-02-17T14:35:26;7.43;;;2.80;;
11731;SDS011;5922;53.734;10.258;2023-02-17T14:37:54;8.40;;;2.20;;
11731;SDS011;5922;53.734;10.258;2023-02-17T14:40:23;8.83;;;2.00;;
11731;SDS011;5922;53.734;10.258;2023-02-17T14:42:50;9.30;;;2.20;;
11731;SDS011;5922;53.734;10.258;2023-02-17T14:45:20;9.77;;;2.97;;
11731;SDS011;5922;53.734;10.258;2023-02-17T14:47:47;11.10;;;2.80;;
11731;SDS011;5922;53.734;10.258;2023-02-17T14:50:14;13.67;;;2.80;;
11731;SDS011;5922;53.734;10.258;2023-02-17T14:52:43;12.27;;;3.70;;
11731;SDS011;5922;53.734;10.258;2023-02-17T14:55:14;8.73;;;2.77;;
11731;SDS011;5922;53.734;10.258;2023-02-17T14:57:43;13.30;;;3.27;;
11731;SDS011;5922;53.734;10.258;2023-02-17T15:02:43;12.67;;;3.30;;
11731;SDS011;5922;53.734;10.258;2023-02-17T15:05:11;18.10;;;3.47;;
11731;SDS011;5922;53.734;10.258;2023-02-17T15:07:39;12.77;;;3.57;;
11731;SDS011;5922;53.734;10.258;2023-02-17T15:10:09;13.33;;;3.13;;
11731;SDS011;5922;53.734;10.258;2023-02-17T15:12:39;24.13;;;5.07;;
11731;SDS011;5922;53.734;10.258;2023-02-17T15:15:11;16.77;;;3.67;;
11731;SDS011;5922;53.734;10.258;2023-02-17T15:17:39;14.93;;;3.60;;
11731;SDS011;5922;53.734;10.258;2023-02-17T15:20:07;11.20;;;3.23;;
11731;SDS011;5922;53.734;10.258;2023-02-17T15:22:39;15.93;;;4.40;;
11731;SDS011;5922;53.734;10.258;2023-02-17T15:25:12;17.63;;;4.43;;
11731;SDS011;5922;53.734;10.258;2023-02-17T15:27:40;19.40;;;4.50;;
11731;SDS011;5922;53.734;10.258;2023-02-17T15:30:11;20.00;;;5.03;;
11731;SDS011;5922;53.734;10.258;2023-02-17T15:32:39;16.17;;;4.63;;
11731;SDS011;5922;53.734;10.258;2023-02-17T15:35:16;19.23;;;5.03;;
11731;SDS011;5922;53.734;10.258;2023-02-17T15:37:47;16.70;;;4.87;;
11731;SDS011;5922;53.734;10.258;2023-02-17T15:40:21;26.93;;;6.07;;
11731;SDS011;5922;53.734;10.258;2023-02-17T15:42:49;16.40;;;5.37;;
11731;SDS011;5922;53.734;10.258;2023-02-17T15:45:19;23.37;;;5.47;;
11731;SDS011;5922;53.734;10.258;2023-02-17T15:47:47;33.80;;;5.83;;
11731;SDS011;5922;53.734;10.258;2023-02-17T15:50:15;23.17;;;5.23;;
11731;SDS011;5922;53.734;10.258;2023-02-17T15:52:44;25.70;;;6.23;;
11731;SDS011;5922;53.734;10.258;2023-02-17T15:55:11;20.27;;;5.47;;